createdAt,value
2018-09-15T00:00:18.749Z,4.00
2018-09-15T00:01:18.733Z,4.00
2018-09-15T00:02:18.713Z,4.00
2018-09-15T00:03:18.704Z,4.00
2018-09-15T00:04:18.682Z,4.00
2018-09-15T00:05:18.665Z,4.00
2018-09-15T00:06:18.645Z,4.00
2018-09-15T00:07:18.630Z,4.00
2018-09-15T00:08:18.612Z,4.00
2018-09-15T00:09:18.602Z,4.00
2018-09-15T00:10:18.579Z,4.00
2018-09-15T00:11:18.573Z,4.00
2018-09-15T00:12:18.556Z,4.00
2018-09-15T00:13:18.532Z,4.00
2018-09-15T00:14:18.512Z,4.00
2018-09-15T00:15:18.495Z,4.00
2018-09-15T00:16:18.479Z,4.00
2018-09-15T00:17:18.463Z,4.00
2018-09-15T00:18:18.447Z,4.00
2018-09-15T00:19:18.435Z,4.00
2018-09-15T00:20:18.418Z,4.00
2018-09-15T00:21:18.394Z,4.00
2018-09-15T00:22:18.380Z,4.00
2018-09-15T00:23:18.371Z,4.00
2018-09-15T00:24:18.345Z,4.00
2018-09-15T00:25:18.329Z,4.00
2018-09-15T00:26:18.310Z,4.00
2018-09-15T00:27:18.373Z,4.00
2018-09-15T00:28:18.287Z,4.00
2018-09-15T00:29:18.266Z,4.00
2018-09-15T00:30:18.242Z,4.00
2018-09-15T00:31:18.224Z,4.00
2018-09-15T00:32:18.207Z,4.00
2018-09-15T00:33:18.191Z,4.00
2018-09-15T00:34:18.177Z,4.00
2018-09-15T00:35:18.158Z,4.00
2018-09-15T00:36:18.145Z,4.00
2018-09-15T00:37:18.124Z,4.00
2018-09-15T00:38:18.108Z,4.00
2018-09-15T00:39:18.089Z,4.00
2018-09-15T00:40:18.071Z,4.00
2018-09-15T00:41:18.061Z,4.00
2018-09-15T00:42:18.035Z,4.00
2018-09-15T00:43:18.018Z,4.00
2018-09-15T00:44:18.001Z,4.00
2018-09-15T00:45:17.983Z,4.00
2018-09-15T00:46:17.967Z,4.00
2018-09-15T00:47:17.950Z,4.00
2018-09-15T00:48:17.945Z,4.00
2018-09-15T00:49:17.943Z,4.00
2018-09-15T00:50:17.899Z,4.00
2018-09-15T00:51:17.882Z,4.00
2018-09-15T00:52:17.866Z,4.00
2018-09-15T00:53:17.857Z,4.00
2018-09-15T00:54:17.839Z,4.00
2018-09-15T00:55:17.812Z,4.00
2018-09-15T00:56:17.796Z,4.00
2018-09-15T00:57:17.794Z,4.00
2018-09-15T00:58:17.760Z,4.00
2018-09-15T00:59:17.746Z,4.00
2018-09-15T01:00:17.728Z,4.00
2018-09-15T01:01:17.716Z,4.00
2018-09-15T01:02:17.698Z,4.00
2018-09-15T01:03:17.678Z,4.00
2018-09-15T01:04:17.671Z,4.00
2018-09-15T01:05:17.641Z,4.00
2018-09-15T01:06:17.625Z,4.00
2018-09-15T01:07:17.608Z,4.00
2018-09-15T01:08:17.590Z,4.00
2018-09-15T01:09:17.574Z,4.00
2018-09-15T01:10:17.565Z,4.00
2018-09-15T01:11:17.559Z,4.00
2018-09-15T01:12:17.524Z,4.00
2018-09-15T01:13:17.613Z,4.00
2018-09-15T01:14:17.622Z,4.00
2018-09-15T01:15:17.470Z,4.00
2018-09-15T01:16:17.509Z,4.00
2018-09-15T01:17:17.450Z,4.00
2018-09-15T01:18:17.430Z,4.00
2018-09-15T01:19:17.425Z,4.00
2018-09-15T01:20:17.386Z,4.00
2018-09-15T01:21:17.377Z,4.00
2018-09-15T01:22:17.359Z,4.00
2018-09-15T01:23:17.349Z,4.00
2018-09-15T01:24:17.325Z,4.00
2018-09-15T01:25:17.298Z,4.00
2018-09-15T01:26:17.284Z,4.00
2018-09-15T01:27:17.263Z,4.00
2018-09-15T01:28:17.256Z,4.00
2018-09-15T01:29:17.228Z,4.00
2018-09-15T01:30:17.216Z,4.00
2018-09-15T01:31:17.194Z,4.00
2018-09-15T01:32:17.179Z,4.00
2018-09-15T01:33:17.178Z,4.00
2018-09-15T01:34:17.149Z,4.00
2018-09-15T01:35:17.134Z,4.00
2018-09-15T01:36:17.107Z,4.00
2018-09-15T01:37:17.097Z,4.00
2018-09-15T01:38:17.171Z,4.00
2018-09-15T01:39:17.054Z,4.00
2018-09-15T01:40:17.036Z,4.00
2018-09-15T01:41:17.027Z,4.00
2018-09-15T01:42:17.002Z,4.00
2018-09-15T01:43:16.992Z,4.00
2018-09-15T01:44:16.968Z,4.00
2018-09-15T01:45:16.953Z,4.00
2018-09-15T01:46:16.940Z,4.00
2018-09-15T01:47:16.924Z,4.00
2018-09-15T01:48:16.897Z,4.00
2018-09-15T01:49:16.879Z,4.00
2018-09-15T01:50:16.868Z,4.00
2018-09-15T01:51:16.846Z,4.00
2018-09-15T01:52:16.826Z,4.00
2018-09-15T01:53:16.811Z,4.00
2018-09-15T01:54:16.793Z,4.00
2018-09-15T01:55:16.775Z,4.00
2018-09-15T01:56:16.757Z,4.00
2018-09-15T01:57:16.743Z,4.00
2018-09-15T01:58:16.733Z,4.00
2018-09-15T01:59:16.704Z,4.00
2018-09-15T02:00:16.686Z,4.00
2018-09-15T02:01:16.667Z,4.00
2018-09-15T02:02:16.746Z,4.00
2018-09-15T02:03:16.634Z,4.00
2018-09-15T02:04:16.614Z,4.00
2018-09-15T02:05:16.613Z,4.00
2018-09-15T02:06:16.579Z,4.00
2018-09-15T02:07:16.563Z,4.00
2018-09-15T02:08:16.547Z,4.00
2018-09-15T02:09:16.527Z,4.00
2018-09-15T02:10:16.508Z,4.00
2018-09-15T02:11:16.492Z,4.00
2018-09-15T02:12:16.473Z,4.00
2018-09-15T02:13:16.464Z,4.00
2018-09-15T02:14:16.451Z,4.00
2018-09-15T02:15:16.425Z,4.00
2018-09-15T02:16:16.403Z,4.00
2018-09-15T02:17:16.385Z,4.00
2018-09-15T02:18:16.371Z,4.00
2018-09-15T02:19:16.351Z,4.00
2018-09-15T02:20:16.332Z,4.00
2018-09-15T02:21:16.433Z,4.00
2018-09-15T02:22:16.300Z,4.00
2018-09-15T02:23:16.277Z,4.00
2018-09-15T02:24:16.269Z,4.00
2018-09-15T02:25:16.243Z,4.00
2018-09-15T02:26:16.229Z,4.00
2018-09-15T02:27:16.214Z,4.00
2018-09-15T02:28:16.191Z,4.00
2018-09-15T02:29:16.173Z,4.00
2018-09-15T02:30:16.153Z,4.00
2018-09-15T02:31:16.142Z,4.00
2018-09-15T02:32:16.128Z,4.00
2018-09-15T02:33:16.109Z,4.00
2018-09-15T02:34:16.083Z,4.00
2018-09-15T02:35:16.069Z,4.00
2018-09-15T02:36:16.047Z,4.00
2018-09-15T02:37:16.032Z,4.00
2018-09-15T02:38:16.011Z,4.00
2018-09-15T02:39:15.998Z,4.00
2018-09-15T02:40:15.982Z,4.00
2018-09-15T02:41:15.961Z,4.00
2018-09-15T02:42:15.943Z,4.00
2018-09-15T02:43:15.927Z,4.00
2018-09-15T02:44:15.904Z,4.00
2018-09-15T02:45:15.890Z,4.00
2018-09-15T02:46:15.869Z,4.00
2018-09-15T02:47:15.853Z,4.00
2018-09-15T02:48:15.833Z,4.00
2018-09-15T02:49:15.817Z,4.00
2018-09-15T02:50:15.800Z,4.00
2018-09-15T02:51:15.880Z,4.00
2018-09-15T02:52:15.763Z,4.00
2018-09-15T02:53:15.752Z,4.00
2018-09-15T02:54:15.729Z,4.00
2018-09-15T02:55:15.714Z,4.00
2018-09-15T02:56:15.693Z,4.00
2018-09-15T02:57:15.670Z,4.00
2018-09-15T02:58:15.652Z,4.00
2018-09-15T02:59:15.637Z,4.00
2018-09-15T03:00:15.617Z,4.00
2018-09-15T03:01:15.799Z,4.00
2018-09-15T03:02:15.587Z,4.00
2018-09-15T03:03:15.563Z,4.00
2018-09-15T03:04:15.552Z,4.00
2018-09-15T03:05:15.525Z,4.00
2018-09-15T03:06:15.506Z,4.00
2018-09-15T03:07:15.488Z,4.00
2018-09-15T03:08:15.471Z,4.00
2018-09-15T03:09:15.464Z,4.00
2018-09-15T03:10:15.493Z,4.00
2018-09-15T03:11:15.418Z,4.00
2018-09-15T03:12:15.405Z,4.00
2018-09-15T03:13:15.389Z,4.00
2018-09-15T03:14:15.370Z,4.00
2018-09-15T03:15:15.347Z,4.00
2018-09-15T03:16:15.328Z,4.00
2018-09-15T03:17:15.307Z,4.00
2018-09-15T03:18:15.299Z,4.00
2018-09-15T03:19:15.274Z,4.00
2018-09-15T03:20:15.255Z,4.00
2018-09-15T03:21:15.236Z,4.00
2018-09-15T03:22:15.217Z,4.00
2018-09-15T03:23:15.200Z,4.00
2018-09-15T03:24:15.182Z,4.00
2018-09-15T03:25:15.172Z,4.00
2018-09-15T03:26:15.144Z,4.00
2018-09-15T03:27:15.128Z,4.00
2018-09-15T03:28:15.110Z,4.00
2018-09-15T03:29:15.192Z,4.00
2018-09-15T03:30:15.074Z,4.00
2018-09-15T03:31:15.054Z,4.00
2018-09-15T03:32:15.037Z,4.00
2018-09-15T03:33:15.019Z,4.00
2018-09-15T03:34:15.001Z,4.00
2018-09-15T03:35:14.983Z,4.00
2018-09-15T03:36:14.962Z,4.00
2018-09-15T03:37:14.954Z,4.00
2018-09-15T03:38:14.926Z,4.00
2018-09-15T03:39:14.908Z,4.00
2018-09-15T03:40:14.929Z,4.00
2018-09-15T03:41:14.874Z,4.00
2018-09-15T03:42:14.856Z,4.00
2018-09-15T03:43:14.837Z,4.00
2018-09-15T03:44:14.822Z,4.00
2018-09-15T03:45:14.800Z,4.00
2018-09-15T03:46:14.784Z,4.00
2018-09-15T03:47:14.763Z,4.00
2018-09-15T03:48:14.744Z,4.00
2018-09-15T03:49:14.728Z,4.00
2018-09-15T03:50:14.708Z,4.00
2018-09-15T03:51:14.693Z,4.00
2018-09-15T03:52:14.673Z,4.00
2018-09-15T03:53:14.795Z,4.00
2018-09-15T03:54:14.641Z,4.00
2018-09-15T03:55:14.618Z,4.00
2018-09-15T03:56:14.676Z,4.00
2018-09-15T03:57:14.584Z,4.00
2018-09-15T03:58:14.562Z,4.00
2018-09-15T03:59:14.594Z,4.00
2018-09-15T04:00:14.527Z,4.00
2018-09-15T04:01:14.511Z,4.00
2018-09-15T04:02:14.489Z,4.00
2018-09-15T04:03:14.471Z,4.00
2018-09-15T04:04:14.456Z,4.00
2018-09-15T04:05:14.433Z,4.00
2018-09-15T04:06:14.416Z,4.00
2018-09-15T04:07:14.401Z,4.00
2018-09-15T04:08:14.387Z,4.00
2018-09-15T04:09:14.361Z,4.00
2018-09-15T04:10:14.357Z,4.00
2018-09-15T04:11:14.326Z,4.00
2018-09-15T04:12:14.311Z,4.00
2018-09-15T04:13:14.292Z,4.00
2018-09-15T04:14:14.268Z,4.00
2018-09-15T04:15:14.256Z,4.00
2018-09-15T04:16:14.239Z,4.00
2018-09-15T04:17:14.214Z,4.00
2018-09-15T04:18:14.211Z,4.00
2018-09-15T04:19:14.178Z,4.00
2018-09-15T04:20:14.160Z,4.00
2018-09-15T04:21:14.140Z,4.00
2018-09-15T04:22:14.129Z,4.00
2018-09-15T04:23:14.104Z,4.00
2018-09-15T04:24:14.090Z,4.00
2018-09-15T04:25:14.069Z,4.00
2018-09-15T04:26:14.056Z,8.00
2018-09-15T04:27:14.030Z,4.00
2018-09-15T04:28:14.044Z,4.00
2018-09-15T04:29:13.993Z,4.00
2018-09-15T04:30:13.978Z,4.00
2018-09-15T04:31:13.955Z,4.00
2018-09-15T04:32:13.942Z,8.00
2018-09-15T04:33:13.922Z,4.00
2018-09-15T04:34:13.905Z,8.00
2018-09-15T04:35:13.881Z,8.00
2018-09-15T04:36:13.868Z,8.00
2018-09-15T04:37:13.849Z,12.00
2018-09-15T04:38:13.828Z,12.00
2018-09-15T04:39:13.810Z,12.00
2018-09-15T04:40:13.802Z,16.00
2018-09-15T04:41:13.791Z,16.00
2018-09-15T04:42:13.830Z,16.00
2018-09-15T04:43:13.734Z,20.00
2018-09-15T04:44:13.718Z,20.00
2018-09-15T04:45:13.800Z,24.00
2018-09-15T04:46:13.682Z,24.00
2018-09-15T04:47:13.666Z,28.00
2018-09-15T04:48:13.648Z,32.00
2018-09-15T04:49:13.628Z,40.00
2018-09-15T04:50:13.610Z,44.00
2018-09-15T04:51:13.593Z,56.00
2018-09-15T04:52:13.571Z,60.00
2018-09-15T04:53:13.561Z,72.00
2018-09-15T04:54:13.536Z,84.00
2018-09-15T04:55:13.517Z,96.00
2018-09-15T04:56:13.499Z,108.00
2018-09-15T04:57:13.493Z,124.00
2018-09-15T04:58:13.469Z,140.00
2018-09-15T04:59:13.442Z,156.00
2018-09-15T05:00:13.426Z,172.00
2018-09-15T05:01:13.427Z,192.00
2018-09-15T05:02:13.388Z,212.00
2018-09-15T05:03:13.372Z,232.00
2018-09-15T05:04:13.350Z,256.00
2018-09-15T05:05:13.341Z,276.00
2018-09-15T05:06:13.316Z,304.00
2018-09-15T05:07:13.346Z,332.00
2018-09-15T05:08:13.278Z,364.00
2018-09-15T05:09:13.259Z,396.00
2018-09-15T05:10:13.239Z,428.00
2018-09-15T05:11:13.220Z,460.00
2018-09-15T05:12:13.201Z,496.00
2018-09-15T05:13:13.185Z,532.00
2018-09-15T05:14:13.165Z,576.00
2018-09-15T05:15:13.149Z,612.00
2018-09-15T05:16:13.130Z,640.00
2018-09-15T05:17:13.117Z,684.00
2018-09-15T05:18:13.092Z,732.00
2018-09-15T05:19:13.072Z,784.00
2018-09-15T05:20:13.053Z,840.00
2018-09-15T05:21:13.034Z,892.00
2018-09-15T05:22:13.018Z,956.00
2018-09-15T05:23:12.998Z,1016.00
2018-09-15T05:24:12.980Z,1080.00
2018-09-15T05:25:12.962Z,1132.00
2018-09-15T05:26:12.946Z,1184.00
2018-09-15T05:27:12.931Z,1228.00
2018-09-15T05:28:12.905Z,1272.00
2018-09-15T05:29:12.888Z,1316.00
2018-09-15T05:30:12.873Z,1360.00
2018-09-15T05:31:12.994Z,1400.00
2018-09-15T05:32:12.831Z,1436.00
2018-09-15T05:33:12.814Z,1492.00
2018-09-15T05:34:12.794Z,1568.00
2018-09-15T05:35:12.777Z,1596.00
2018-09-15T05:36:12.758Z,1608.00
2018-09-15T05:37:12.739Z,1624.00
2018-09-15T05:38:12.732Z,1668.00
2018-09-15T05:39:12.704Z,1724.00
2018-09-15T05:40:12.682Z,1776.00
2018-09-15T05:41:12.665Z,1828.00
2018-09-15T05:42:12.649Z,1868.00
2018-09-15T05:43:12.630Z,1916.00
2018-09-15T05:44:12.613Z,1948.00
2018-09-15T05:45:12.608Z,1964.00
2018-09-15T05:46:12.582Z,1960.00
2018-09-15T05:47:12.553Z,2012.00
2018-09-15T05:48:12.538Z,2052.00
2018-09-15T05:49:12.518Z,2120.00
2018-09-15T05:50:12.501Z,2164.00
2018-09-15T05:51:12.491Z,2200.00
2018-09-15T05:52:12.463Z,2232.00
2018-09-15T05:53:12.496Z,2288.00
2018-09-15T05:54:12.427Z,2320.00
2018-09-15T05:55:12.422Z,2392.00
2018-09-15T05:56:12.432Z,2456.00
2018-09-15T05:57:12.372Z,2504.00
2018-09-15T05:58:12.354Z,2556.00
2018-09-15T05:59:12.335Z,2620.00
2018-09-15T06:00:12.319Z,2756.00
2018-09-15T06:01:12.303Z,2832.00
2018-09-15T06:02:12.281Z,2844.00
2018-09-15T06:03:12.271Z,2848.00
2018-09-15T06:04:12.245Z,2884.00
2018-09-15T06:05:12.227Z,2924.00
2018-09-15T06:06:12.206Z,2980.00
2018-09-15T06:07:12.197Z,3028.00
2018-09-15T06:08:12.170Z,3080.00
2018-09-15T06:09:12.157Z,3168.00
2018-09-15T06:10:12.136Z,3232.00
2018-09-15T06:11:12.117Z,3256.00
2018-09-15T06:12:12.100Z,3320.00
2018-09-15T06:13:12.080Z,3368.00
2018-09-15T06:14:12.063Z,3444.00
2018-09-15T06:15:12.051Z,3468.00
2018-09-15T06:16:12.025Z,3552.00
2018-09-15T06:17:12.031Z,3564.00
2018-09-15T06:18:11.987Z,3584.00
2018-09-15T06:19:11.972Z,3552.00
2018-09-15T06:20:12.002Z,3640.00
2018-09-15T06:21:11.948Z,3672.00
2018-09-15T06:22:11.917Z,3652.00
2018-09-15T06:23:11.898Z,3680.00
2018-09-15T06:24:11.880Z,3660.00
2018-09-15T06:25:11.864Z,3724.00
2018-09-15T06:26:11.842Z,3776.00
2018-09-15T06:27:11.830Z,3796.00
2018-09-15T06:28:11.806Z,3820.00
2018-09-15T06:29:11.805Z,3908.00
2018-09-15T06:30:11.770Z,3872.00
2018-09-15T06:31:11.756Z,3764.00
2018-09-15T06:32:11.740Z,3932.00
2018-09-15T06:33:11.721Z,4040.00
2018-09-15T06:34:11.700Z,3944.00
2018-09-15T06:35:11.681Z,3792.00
2018-09-15T06:36:11.704Z,3900.00
2018-09-15T06:37:11.644Z,3988.00
2018-09-15T06:38:11.628Z,4068.00
2018-09-15T06:39:11.724Z,4596.00
2018-09-15T06:40:11.602Z,4912.00
2018-09-15T06:41:11.573Z,5068.00
2018-09-15T06:42:11.562Z,5228.00
2018-09-15T06:43:11.536Z,5240.00
2018-09-15T06:44:11.518Z,5056.00
2018-09-15T06:45:11.507Z,4872.00
2018-09-15T06:46:11.482Z,4800.00
2018-09-15T06:47:11.467Z,4800.00
2018-09-15T06:48:11.451Z,4980.00
2018-09-15T06:49:11.430Z,5476.00
2018-09-15T06:50:11.415Z,6080.00
2018-09-15T06:51:11.395Z,6672.00
2018-09-15T06:52:11.379Z,7344.00
2018-09-15T06:53:11.363Z,7964.00
2018-09-15T06:54:11.343Z,8416.00
2018-09-15T06:55:11.346Z,8780.00
2018-09-15T06:56:11.306Z,8932.00
2018-09-15T06:57:11.292Z,9076.00
2018-09-15T06:58:11.273Z,8760.00
2018-09-15T06:59:11.256Z,8456.00
2018-09-15T07:00:11.240Z,8372.00
2018-09-15T07:01:11.220Z,8716.00
2018-09-15T07:02:11.202Z,8872.00
2018-09-15T07:03:11.194Z,8976.00
2018-09-15T07:04:11.168Z,8560.00
2018-09-15T07:05:11.151Z,8200.00
2018-09-15T07:06:11.149Z,7404.00
2018-09-15T07:07:11.117Z,6492.00
2018-09-15T07:08:11.100Z,5976.00
2018-09-15T07:09:11.082Z,5804.00
2018-09-15T07:10:11.075Z,5140.00
2018-09-15T07:11:11.052Z,4744.00
2018-09-15T07:12:11.031Z,4952.00
2018-09-15T07:13:11.015Z,5472.00
2018-09-15T07:14:11.001Z,6132.00
2018-09-15T07:15:10.996Z,7184.00
2018-09-15T07:16:10.973Z,7780.00
2018-09-15T07:17:10.958Z,7936.00
2018-09-15T07:18:10.938Z,7432.00
2018-09-15T07:19:10.919Z,7016.00
2018-09-15T07:20:10.947Z,6676.00
2018-09-15T07:21:10.879Z,6432.00
2018-09-15T07:22:10.865Z,6232.00
2018-09-15T07:23:10.844Z,6532.00
2018-09-15T07:24:10.829Z,7400.00
2018-09-15T07:25:10.817Z,8352.00
2018-09-15T07:26:10.796Z,9260.00
2018-09-15T07:27:10.786Z,9948.00
2018-09-15T07:28:10.836Z,10740.00
2018-09-15T07:29:10.747Z,11520.00
2018-09-15T07:30:10.727Z,12156.00
2018-09-15T07:31:10.768Z,12476.00
2018-09-15T07:32:10.702Z,12656.00
2018-09-15T07:33:10.679Z,12756.00
2018-09-15T07:34:10.663Z,12452.00
2018-09-15T07:35:10.648Z,12764.00
2018-09-15T07:36:10.635Z,12812.00
2018-09-15T07:37:10.616Z,12204.00
2018-09-15T07:38:10.593Z,11928.00
2018-09-15T07:39:10.579Z,11836.00
2018-09-15T07:40:10.571Z,11612.00
2018-09-15T07:41:10.545Z,11404.00
2018-09-15T07:42:10.538Z,11476.00
2018-09-15T07:43:10.526Z,11144.00
2018-09-15T07:44:10.632Z,10704.00
2018-09-15T07:45:10.487Z,11592.00
2018-09-15T07:46:10.466Z,12952.00
2018-09-15T07:47:10.453Z,14372.00
2018-09-15T07:48:10.433Z,14864.00
2018-09-15T07:49:10.424Z,15068.00
2018-09-15T07:50:10.419Z,15316.00
2018-09-15T07:51:10.386Z,14676.00
2018-09-15T07:52:10.370Z,14520.00
2018-09-15T07:53:10.354Z,14544.00
2018-09-15T07:54:10.341Z,14220.00
2018-09-15T07:55:10.328Z,13656.00
2018-09-15T07:56:10.307Z,13888.00
2018-09-15T07:57:10.302Z,14088.00
2018-09-15T07:58:10.288Z,14092.00
2018-09-15T07:59:10.263Z,14396.00
2018-09-15T08:00:10.245Z,14876.00
2018-09-15T08:01:10.231Z,15988.00
2018-09-15T08:02:10.215Z,15644.00
2018-09-15T08:03:10.213Z,15676.00
2018-09-15T08:04:10.186Z,15692.00
2018-09-15T08:05:10.170Z,15880.00
2018-09-15T08:06:10.162Z,15452.00
2018-09-15T08:07:10.140Z,15656.00
2018-09-15T08:08:10.133Z,15316.00
2018-09-15T08:09:10.125Z,15212.00
2018-09-15T08:10:10.104Z,15464.00
2018-09-15T08:11:10.149Z,14804.00
2018-09-15T08:12:10.068Z,14404.00
2018-09-15T08:13:10.053Z,14264.00
2018-09-15T08:14:10.034Z,14304.00
2018-09-15T08:15:10.025Z,14232.00
2018-09-15T08:16:10.023Z,14380.00
2018-09-15T08:17:10.012Z,14040.00
2018-09-15T08:18:09.975Z,13644.00
2018-09-15T08:19:09.961Z,13056.00
2018-09-15T08:20:09.952Z,12920.00
2018-09-15T08:21:09.933Z,12596.00
2018-09-15T08:22:09.919Z,12488.00
2018-09-15T08:23:09.909Z,12740.00
2018-09-15T08:24:09.891Z,12744.00
2018-09-15T08:25:09.886Z,12544.00
2018-09-15T08:26:09.901Z,12236.00
2018-09-15T08:27:09.849Z,11928.00
2018-09-15T08:28:09.833Z,11780.00
2018-09-15T08:29:09.827Z,11744.00
2018-09-15T08:30:09.809Z,11512.00
2018-09-15T08:31:09.787Z,11032.00
2018-09-15T08:32:09.821Z,11176.00
2018-09-15T08:33:09.758Z,11616.00
2018-09-15T08:34:09.743Z,12412.00
2018-09-15T08:35:09.730Z,13052.00
2018-09-15T08:36:09.726Z,13520.00
2018-09-15T08:37:09.700Z,13304.00
2018-09-15T08:38:09.704Z,11176.00
2018-09-15T08:39:09.669Z,11948.00
2018-09-15T08:40:09.656Z,13060.00
2018-09-15T08:41:09.742Z,13916.00
2018-09-15T08:42:09.643Z,14164.00
2018-09-15T08:43:09.614Z,15416.00
2018-09-15T08:44:09.609Z,15824.00
2018-09-15T08:45:09.589Z,16376.00
2018-09-15T08:46:09.569Z,16016.00
2018-09-15T08:47:09.557Z,15756.00
2018-09-15T08:48:09.604Z,15996.00
2018-09-15T08:49:09.528Z,16040.00
2018-09-15T08:50:09.512Z,15800.00
2018-09-15T08:51:09.499Z,14932.00
2018-09-15T08:52:09.484Z,15100.00
2018-09-15T08:53:09.471Z,15200.00
2018-09-15T08:54:09.455Z,15740.00
2018-09-15T08:55:09.446Z,16928.00
2018-09-15T08:56:09.490Z,16620.00
2018-09-15T08:57:09.413Z,14588.00
2018-09-15T08:58:09.406Z,14880.00
2018-09-15T08:59:09.384Z,16960.00
2018-09-15T09:00:09.370Z,18784.00
2018-09-15T09:01:09.358Z,18560.00
2018-09-15T09:02:09.344Z,18752.00
2018-09-15T09:03:09.332Z,19904.00
2018-09-15T09:04:09.317Z,19904.00
2018-09-15T09:05:09.301Z,19200.00
2018-09-15T09:06:09.310Z,18656.00
2018-09-15T09:07:09.274Z,19392.00
2018-09-15T09:08:09.259Z,15272.00
2018-09-15T09:09:09.248Z,16800.00
2018-09-15T09:10:09.241Z,15140.00
2018-09-15T09:11:09.222Z,16896.00
2018-09-15T09:12:09.205Z,18208.00
2018-09-15T09:13:09.190Z,16080.00
2018-09-15T09:14:09.186Z,14060.00
2018-09-15T09:15:09.184Z,14952.00
2018-09-15T09:16:09.301Z,15216.00
2018-09-15T09:17:09.173Z,15308.00
2018-09-15T09:18:09.123Z,14472.00
2018-09-15T09:19:09.210Z,14496.00
2018-09-15T09:20:09.102Z,16280.00
2018-09-15T09:21:09.095Z,15624.00
2018-09-15T09:22:09.074Z,15696.00
2018-09-15T09:23:09.059Z,17440.00
2018-09-15T09:24:09.062Z,19968.00
2018-09-15T09:25:09.029Z,21824.00
2018-09-15T09:26:09.049Z,16928.00
2018-09-15T09:27:09.002Z,19328.00
2018-09-15T09:28:08.987Z,18752.00
2018-09-15T09:29:08.979Z,18272.00
2018-09-15T09:30:08.963Z,22752.00
2018-09-15T09:31:08.960Z,40864.00
2018-09-15T09:32:08.937Z,29504.00
2018-09-15T09:33:08.955Z,27968.00
2018-09-15T09:34:08.907Z,41696.00
2018-09-15T09:35:08.898Z,59648.00
2018-09-15T09:36:08.886Z,41216.00
2018-09-15T09:37:08.919Z,35104.00
2018-09-15T09:38:08.867Z,54656.00
2018-09-15T09:39:08.851Z,32160.00
2018-09-15T09:40:08.845Z,31904.00
2018-09-15T09:41:08.827Z,24224.00
2018-09-15T09:42:08.807Z,34112.00
2018-09-15T09:43:08.826Z,29312.00
2018-09-15T09:44:08.863Z,52768.00
2018-09-15T09:45:08.801Z,36096.00
2018-09-15T09:46:08.782Z,47296.00
2018-09-15T09:47:08.749Z,56160.00
2018-09-15T09:48:08.798Z,61760.00
2018-09-15T09:49:08.731Z,61088.00
2018-09-15T09:50:08.719Z,83744.00
2018-09-15T09:51:08.721Z,60896.00
2018-09-15T09:52:08.702Z,16900.00
2018-09-15T09:53:08.702Z,21952.00
2018-09-15T09:54:08.683Z,19936.00
2018-09-15T09:55:08.670Z,75072.00
2018-09-15T09:56:08.658Z,43232.00
2018-09-15T09:57:08.653Z,14228.00
2018-09-15T09:58:08.631Z,19584.00
2018-09-15T09:59:08.631Z,67776.00
2018-09-15T10:00:08.612Z,20736.00
2018-09-15T10:01:08.677Z,68672.00
2018-09-15T10:02:08.596Z,76448.00
2018-09-15T10:03:08.586Z,77344.00
2018-09-15T10:04:08.588Z,79008.00
2018-09-15T10:05:08.570Z,73504.00
2018-09-15T10:06:08.558Z,79360.00
2018-09-15T10:07:08.566Z,81088.00
2018-09-15T10:08:08.552Z,78080.00
2018-09-15T10:09:08.535Z,22784.00
2018-09-15T10:10:08.527Z,59808.00
2018-09-15T10:11:08.517Z,7828.00
2018-09-15T10:12:08.544Z,7692.00
2018-09-15T10:13:08.504Z,10872.00
2018-09-15T10:14:08.492Z,14052.00
2018-09-15T10:15:08.485Z,9196.00
2018-09-15T10:16:08.484Z,6948.00
2018-09-15T10:17:08.467Z,7268.00
2018-09-15T10:18:08.456Z,9688.00
2018-09-15T10:19:08.451Z,11140.00
2018-09-15T10:20:08.447Z,13252.00
2018-09-15T10:21:08.436Z,13184.00
2018-09-15T10:22:08.425Z,15044.00
2018-09-15T10:23:08.417Z,15668.00
2018-09-15T10:24:08.403Z,14096.00
2018-09-15T10:25:08.389Z,10440.00
2018-09-15T10:26:08.380Z,7880.00
2018-09-15T10:27:08.379Z,6568.00
2018-09-15T10:28:08.357Z,6184.00
2018-09-15T10:29:08.345Z,6752.00
2018-09-15T10:30:08.341Z,7336.00
2018-09-15T10:31:08.542Z,7452.00
2018-09-15T10:32:08.325Z,8240.00
2018-09-15T10:33:08.303Z,13904.00
2018-09-15T10:34:08.290Z,74208.00
2018-09-15T10:35:08.279Z,14020.00
2018-09-15T10:36:08.271Z,12052.00
2018-09-15T10:37:08.257Z,35840.00
2018-09-15T10:38:08.242Z,67616.00
2018-09-15T10:39:08.231Z,64704.00
2018-09-15T10:40:08.231Z,31296.00
2018-09-15T10:41:08.210Z,25632.00
2018-09-15T10:42:08.308Z,23392.00
2018-09-15T10:43:08.194Z,18304.00
2018-09-15T10:44:08.175Z,15848.00
2018-09-15T10:45:08.165Z,15128.00
2018-09-15T10:46:08.160Z,14512.00
2018-09-15T10:47:08.143Z,12988.00
2018-09-15T10:48:08.134Z,11692.00
2018-09-15T10:49:08.122Z,10764.00
2018-09-15T10:50:08.123Z,11212.00
2018-09-15T10:51:08.122Z,11668.00
2018-09-15T10:52:08.086Z,11560.00
2018-09-15T10:53:08.079Z,9856.00
2018-09-15T10:54:08.062Z,8224.00
2018-09-15T10:55:08.078Z,7060.00
2018-09-15T10:56:08.043Z,6484.00
2018-09-15T10:57:08.037Z,5644.00
2018-09-15T10:58:08.024Z,5748.00
2018-09-15T10:59:08.004Z,6860.00
2018-09-15T11:00:08.005Z,8240.00
2018-09-15T11:01:07.982Z,8560.00
2018-09-15T11:02:07.977Z,9080.00
2018-09-15T11:03:07.964Z,8896.00
2018-09-15T11:04:07.945Z,8668.00
2018-09-15T11:05:07.932Z,8452.00
2018-09-15T11:06:07.943Z,8336.00
2018-09-15T11:07:07.907Z,7964.00
2018-09-15T11:08:07.897Z,8216.00
2018-09-15T11:09:07.885Z,7512.00
2018-09-15T11:10:07.876Z,6144.00
2018-09-15T11:11:07.857Z,5244.00
2018-09-15T11:12:07.851Z,4504.00
2018-09-15T11:13:07.837Z,3856.00
2018-09-15T11:14:07.818Z,3200.00
2018-09-15T11:15:07.805Z,2648.00
2018-09-15T11:16:07.804Z,2500.00
2018-09-15T11:17:07.796Z,2636.00
2018-09-15T11:18:07.769Z,2728.00
2018-09-15T11:19:07.757Z,2972.00
2018-09-15T11:20:07.741Z,3256.00
2018-09-15T11:21:07.728Z,3304.00
2018-09-15T11:22:07.721Z,2952.00
2018-09-15T11:24:12.209Z,2456.00
2018-09-15T11:25:12.198Z,2428.00
2018-09-15T11:26:12.199Z,2404.00
2018-09-15T11:27:12.169Z,2452.00
2018-09-15T11:28:12.158Z,2520.00
2018-09-15T11:29:12.145Z,3336.00
2018-09-15T11:30:12.131Z,4356.00
2018-09-15T11:31:12.125Z,6156.00
2018-09-15T11:32:12.105Z,7584.00
2018-09-15T11:33:12.091Z,8316.00
2018-09-15T11:34:12.220Z,8428.00
2018-09-15T11:35:12.062Z,7584.00
2018-09-15T11:36:12.047Z,6840.00
2018-09-15T11:37:12.053Z,5824.00
2018-09-15T11:38:12.022Z,5076.00
2018-09-15T11:39:12.006Z,4764.00
2018-09-15T11:40:11.994Z,4672.00
2018-09-15T11:41:11.991Z,4528.00
2018-09-15T11:42:12.067Z,4320.00
2018-09-15T11:43:11.955Z,3916.00
2018-09-15T11:44:11.940Z,3504.00
2018-09-15T11:45:11.932Z,3144.00
2018-09-15T11:46:11.912Z,2996.00
2018-09-15T11:47:11.902Z,3060.00
2018-09-15T11:48:11.883Z,3516.00
2018-09-15T11:49:11.872Z,4088.00
2018-09-15T11:50:11.885Z,4396.00
2018-09-15T11:51:11.842Z,4704.00
2018-09-15T11:52:11.833Z,4872.00
2018-09-15T11:53:11.815Z,4856.00
2018-09-15T11:54:11.804Z,4808.00
2018-09-15T11:55:11.790Z,4744.00
2018-09-15T11:56:11.781Z,4620.00
2018-09-15T11:57:11.759Z,4596.00
2018-09-15T11:58:11.746Z,4672.00
2018-09-15T11:59:11.731Z,4616.00
2018-09-15T12:00:11.792Z,4572.00
2018-09-15T12:01:11.706Z,4632.00
2018-09-15T12:02:11.688Z,4760.00
2018-09-15T12:03:11.678Z,4604.00
2018-09-15T12:04:11.663Z,4324.00
2018-09-15T12:05:11.662Z,4260.00
2018-09-15T12:06:11.688Z,4432.00
2018-09-15T12:07:11.616Z,4724.00
2018-09-15T12:08:11.615Z,5192.00
2018-09-15T12:09:11.650Z,5832.00
2018-09-15T12:10:11.587Z,6556.00
2018-09-15T12:11:11.563Z,7316.00
2018-09-15T12:12:11.552Z,8312.00
2018-09-15T12:13:11.542Z,9468.00
2018-09-15T12:14:11.594Z,10808.00
2018-09-15T12:15:11.523Z,12036.00
2018-09-15T12:16:11.490Z,12684.00
2018-09-15T12:17:11.481Z,13016.00
2018-09-15T12:18:11.461Z,13324.00
2018-09-15T12:19:11.454Z,13532.00
2018-09-15T12:20:11.435Z,13624.00
2018-09-15T12:21:11.498Z,13408.00
2018-09-15T12:22:11.500Z,13316.00
2018-09-15T12:23:11.394Z,13348.00
2018-09-15T12:24:11.391Z,13576.00
2018-09-15T12:25:11.370Z,13620.00
2018-09-15T12:26:11.373Z,13344.00
2018-09-15T12:27:11.340Z,13552.00